createdAt,value
2023-04-17T00:00:39.432Z,1.40
2023-04-17T00:03:06.665Z,1.33
2023-04-17T00:05:33.945Z,0.88
2023-04-17T00:08:01.211Z,1.17
2023-04-17T00:10:28.401Z,2.05
2023-04-17T00:12:55.622Z,1.25
2023-04-17T00:15:22.720Z,1.10
2023-04-17T00:17:49.929Z,1.15
2023-04-17T00:20:17.186Z,1.25
2023-04-17T00:22:44.348Z,1.73
2023-04-17T00:25:14.722Z,1.40
2023-04-17T00:27:42.868Z,1.38
2023-04-17T00:30:10.635Z,1.52
2023-04-17T00:32:37.867Z,1.10
2023-04-17T00:35:05.206Z,1.10
2023-04-17T00:37:32.362Z,1.10
2023-04-17T00:39:59.463Z,1.20
2023-04-17T00:42:27.018Z,0.80
2023-04-17T00:44:54.164Z,1.05
2023-04-17T00:47:22.518Z,1.52
2023-04-17T00:49:51.004Z,0.88
2023-04-17T00:52:20.800Z,1.05
2023-04-17T00:54:48.164Z,1.08
2023-04-17T00:57:15.415Z,1.23
2023-04-17T00:59:42.651Z,1.52
2023-04-17T01:02:09.993Z,1.10
2023-04-17T01:04:37.341Z,2.20
2023-04-17T01:07:04.518Z,1.23
2023-04-17T01:09:31.905Z,1.10
2023-04-17T01:12:17.570Z,1.20
2023-04-17T01:14:45.126Z,2.42
2023-04-17T01:17:14.346Z,1.85
2023-04-17T01:19:41.888Z,1.20
2023-04-17T01:22:09.124Z,1.23
2023-04-17T01:24:36.912Z,1.50
2023-04-17T01:27:04.373Z,1.15
2023-04-17T01:29:31.556Z,1.52
2023-04-17T01:31:58.675Z,1.30
2023-04-17T01:34:25.797Z,1.13
2023-04-17T01:36:53.164Z,2.30
2023-04-17T01:39:20.525Z,2.83
2023-04-17T01:41:47.640Z,1.33
2023-04-17T01:44:14.740Z,2.33
2023-04-17T01:46:41.886Z,1.77
2023-04-17T01:49:09.153Z,5.00
2023-04-17T01:51:36.332Z,2.13
2023-04-17T01:54:03.539Z,1.50
2023-04-17T01:56:30.906Z,1.98
2023-04-17T01:58:58.107Z,1.70
2023-04-17T02:01:25.337Z,1.88
2023-04-17T02:03:52.718Z,1.90
2023-04-17T02:06:19.978Z,2.75
2023-04-17T02:08:47.101Z,1.83
2023-04-17T02:11:15.311Z,2.05
2023-04-17T02:13:42.465Z,3.92
2023-04-17T02:16:09.907Z,1.60
2023-04-17T02:18:37.615Z,2.20
2023-04-17T02:21:04.774Z,2.65
2023-04-17T02:23:31.901Z,3.05
2023-04-17T02:25:59.024Z,2.63
2023-04-17T02:28:26.236Z,2.58
2023-04-17T02:30:53.420Z,3.38
2023-04-17T02:33:21.430Z,3.72
2023-04-17T02:35:48.578Z,4.03
2023-04-17T02:38:15.690Z,4.40
2023-04-17T02:40:42.787Z,4.25
2023-04-17T02:43:09.944Z,3.40
2023-04-17T02:45:37.076Z,4.30
2023-04-17T02:48:04.281Z,3.70
2023-04-17T02:50:31.413Z,4.95
2023-04-17T02:52:58.558Z,5.28
2023-04-17T02:55:25.766Z,5.90
2023-04-17T02:57:52.896Z,4.47
2023-04-17T03:00:20.814Z,8.23
2023-04-17T03:02:48.161Z,6.75
2023-04-17T03:05:16.228Z,6.70
2023-04-17T03:07:43.388Z,6.60
2023-04-17T03:10:10.615Z,6.80
2023-04-17T03:12:37.903Z,6.75
2023-04-17T03:15:08.838Z,8.10
2023-04-17T03:17:36.244Z,7.07
2023-04-17T03:20:04.179Z,9.45
2023-04-17T03:22:31.272Z,8.43
2023-04-17T03:24:58.351Z,9.45
2023-04-17T03:27:25.517Z,9.55
2023-04-17T03:29:52.833Z,11.07
2023-04-17T03:32:19.986Z,12.63
2023-04-17T03:34:47.325Z,12.13
2023-04-17T03:37:14.465Z,13.45
2023-04-17T03:39:41.790Z,15.98
2023-04-17T03:42:11.997Z,16.80
2023-04-17T03:44:39.131Z,16.40
2023-04-17T03:47:06.253Z,17.08
2023-04-17T03:49:33.453Z,16.00
2023-04-17T03:52:00.648Z,15.35
2023-04-17T03:54:27.741Z,16.83
2023-04-17T03:56:54.872Z,18.67
2023-04-17T03:59:22.061Z,16.15
2023-04-17T04:01:49.179Z,18.50
2023-04-17T04:04:17.081Z,16.42
2023-04-17T04:06:45.030Z,15.95
2023-04-17T04:09:12.269Z,16.80
2023-04-17T04:11:39.510Z,17.45
2023-04-17T04:14:06.718Z,20.23
2023-04-17T04:16:33.874Z,17.10
2023-04-17T04:19:01.067Z,16.55
2023-04-17T04:21:28.192Z,16.75
2023-04-17T04:23:56.308Z,18.02
2023-04-17T04:26:24.410Z,17.55
2023-04-17T04:28:51.540Z,18.52
2023-04-17T04:31:19.326Z,15.82
2023-04-17T04:33:46.836Z,20.55
2023-04-17T04:36:14.078Z,19.25
2023-04-17T04:38:41.175Z,20.27
2023-04-17T04:41:10.594Z,8.75
2023-04-17T04:43:37.817Z,8.18
2023-04-17T04:46:05.023Z,8.00
2023-04-17T04:48:32.452Z,7.88
2023-04-17T04:50:59.623Z,7.78
2023-04-17T04:53:26.869Z,7.60
2023-04-17T04:55:53.978Z,7.93
2023-04-17T04:58:21.278Z,7.05
2023-04-17T05:00:48.412Z,7.60
2023-04-17T05:03:15.909Z,6.55
2023-04-17T05:05:44.261Z,7.05
2023-04-17T05:08:11.372Z,7.20
2023-04-17T05:10:38.529Z,7.75
2023-04-17T05:13:05.687Z,7.53
2023-04-17T05:15:32.819Z,8.05
2023-04-17T05:18:00.001Z,10.18
2023-04-17T05:20:27.208Z,11.45
2023-04-17T05:22:54.419Z,9.52
2023-04-17T05:25:22.578Z,10.10
2023-04-17T05:27:49.706Z,9.60
2023-04-17T05:30:17.030Z,9.73
2023-04-17T05:32:44.398Z,11.18
2023-04-17T05:35:11.567Z,12.88
2023-04-17T05:37:38.681Z,12.40
2023-04-17T05:40:07.116Z,11.35
2023-04-17T05:42:35.067Z,12.18
2023-04-17T05:45:02.277Z,10.70
2023-04-17T05:47:29.546Z,9.10
2023-04-17T05:49:59.998Z,9.82
2023-04-17T05:52:27.152Z,12.27
2023-04-17T05:54:54.254Z,9.63
2023-04-17T05:57:21.416Z,10.65
2023-04-17T05:59:49.276Z,10.73
2023-04-17T06:02:16.828Z,14.32
2023-04-17T06:04:44.653Z,14.10
2023-04-17T06:07:12.433Z,15.20
2023-04-17T06:09:40.786Z,14.05
2023-04-17T06:12:14.725Z,17.83
2023-04-17T06:14:41.865Z,17.60
2023-04-17T06:17:09.167Z,18.70
2023-04-17T06:19:36.468Z,16.33
2023-04-17T06:22:03.628Z,17.30
2023-04-17T06:24:30.725Z,17.58
2023-04-17T06:26:58.007Z,17.08
2023-04-17T06:29:25.366Z,15.43
2023-04-17T06:31:52.518Z,20.75
2023-04-17T06:34:19.661Z,21.00
2023-04-17T06:36:46.848Z,18.63
2023-04-17T06:39:14.112Z,15.40
2023-04-17T06:41:41.424Z,15.75
2023-04-17T06:44:08.593Z,16.40
2023-04-17T06:46:35.837Z,17.25
2023-04-17T06:49:03.061Z,15.35
2023-04-17T06:51:30.250Z,14.77
2023-04-17T06:53:57.424Z,13.75
2023-04-17T06:56:24.580Z,16.98
2023-04-17T06:58:52.092Z,14.60
2023-04-17T07:01:19.830Z,12.77
2023-04-17T07:03:47.248Z,13.10
2023-04-17T07:06:14.830Z,17.30
2023-04-17T07:08:42.010Z,13.70
2023-04-17T07:11:09.155Z,13.32
2023-04-17T07:13:36.377Z,11.68
2023-04-17T07:16:04.212Z,15.20
2023-04-17T07:18:31.447Z,11.98
2023-04-17T07:20:58.572Z,13.60
2023-04-17T07:23:25.808Z,13.93
2023-04-17T07:25:53.125Z,12.35
2023-04-17T07:28:20.255Z,13.50
2023-04-17T07:30:47.455Z,14.02
2023-04-17T07:33:14.595Z,14.73
2023-04-17T07:35:42.643Z,13.00
2023-04-17T07:38:09.821Z,13.55
2023-04-17T07:40:37.232Z,14.00
2023-04-17T07:43:04.830Z,14.70
2023-04-17T07:45:33.487Z,17.55
2023-04-17T07:48:00.664Z,15.25
2023-04-17T07:50:27.841Z,16.88
2023-04-17T07:52:54.983Z,14.90
2023-04-17T07:55:22.161Z,13.57
2023-04-17T07:57:51.603Z,16.52
2023-04-17T08:00:19.450Z,15.10
2023-04-17T08:02:46.806Z,13.77
2023-04-17T08:05:14.241Z,14.60
2023-04-17T08:07:42.456Z,13.85
2023-04-17T08:10:09.832Z,16.35
2023-04-17T08:12:37.153Z,12.93
2023-04-17T08:15:05.139Z,13.13
2023-04-17T08:17:34.688Z,16.70
2023-04-17T08:20:08.405Z,14.35
2023-04-17T08:22:39.218Z,16.08
2023-04-17T08:25:09.268Z,16.73
2023-04-17T08:27:40.536Z,14.30
2023-04-17T08:30:11.208Z,16.67
2023-04-17T08:32:43.493Z,17.73
2023-04-17T08:35:14.358Z,18.00
2023-04-17T08:37:42.451Z,15.45
2023-04-17T08:40:11.165Z,14.77
2023-04-17T08:42:39.171Z,15.82
2023-04-17T08:45:07.700Z,20.02
2023-04-17T08:47:35.039Z,15.32
2023-04-17T08:50:09.490Z,15.13
2023-04-17T08:52:54.755Z,18.95
2023-04-17T08:55:24.841Z,18.92
2023-04-17T08:57:55.230Z,15.80
2023-04-17T09:00:26.367Z,15.57
2023-04-17T09:02:54.683Z,16.88
2023-04-17T09:05:22.841Z,16.55
2023-04-17T09:07:51.821Z,16.35
2023-04-17T09:10:19.139Z,19.75
2023-04-17T09:13:00.073Z,22.95
2023-04-17T09:15:27.396Z,19.42
2023-04-17T09:17:54.739Z,22.55
2023-04-17T09:20:22.016Z,22.75
2023-04-17T09:22:49.258Z,20.50
2023-04-17T09:25:17.684Z,20.52
2023-04-17T09:27:46.303Z,22.00
2023-04-17T09:30:13.682Z,23.75
2023-04-17T09:32:41.038Z,21.02
2023-04-17T09:35:08.660Z,21.23
2023-04-17T09:37:55.508Z,20.23
2023-04-17T09:40:25.268Z,20.73
2023-04-17T09:42:55.675Z,21.20
2023-04-17T09:45:24.431Z,25.80
2023-04-17T09:47:57.448Z,20.45
2023-04-17T09:50:25.011Z,18.50
2023-04-17T09:52:53.023Z,19.23
2023-04-17T09:55:21.584Z,22.20
2023-04-17T09:57:53.748Z,22.90
2023-04-17T10:00:21.606Z,20.92
2023-04-17T10:02:51.963Z,21.42
2023-04-17T10:05:20.439Z,18.73
2023-04-17T10:07:48.017Z,18.23
2023-04-17T10:10:25.499Z,22.13
2023-04-17T10:12:54.142Z,21.33
2023-04-17T10:15:22.336Z,23.55
2023-04-17T10:17:49.985Z,26.50
2023-04-17T10:20:20.215Z,19.35
2023-04-17T10:22:54.296Z,21.63
2023-04-17T10:25:22.499Z,23.00
2023-04-17T10:27:51.053Z,20.25
2023-04-17T10:32:47.070Z,18.88
2023-04-17T10:35:17.766Z,18.52
2023-04-17T10:37:50.689Z,16.73
2023-04-17T10:40:31.300Z,18.67
2023-04-17T10:43:18.037Z,17.48
2023-04-17T10:45:57.429Z,18.00
2023-04-17T10:48:35.036Z,17.15
2023-04-17T10:51:21.401Z,15.05
2023-04-17T10:53:52.432Z,15.23
2023-04-17T10:56:21.152Z,15.70
2023-04-17T10:59:06.844Z,13.60
2023-04-17T11:01:49.359Z,14.63
2023-04-17T11:04:20.868Z,15.55
2023-04-17T11:06:48.352Z,15.30
2023-04-17T11:09:16.008Z,14.77
2023-04-17T11:11:45.214Z,20.70
2023-04-17T11:14:14.798Z,20.08
2023-04-17T11:16:43.080Z,22.15
2023-04-17T11:19:11.447Z,18.95
2023-04-17T11:21:54.895Z,19.08
2023-04-17T11:24:26.644Z,18.55
2023-04-17T11:26:54.093Z,20.23
2023-04-17T11:29:22.372Z,16.80
2023-04-17T11:31:51.236Z,18.30
2023-04-17T11:34:18.843Z,18.42
2023-04-17T11:37:12.224Z,19.30
2023-04-17T11:39:43.102Z,18.98
2023-04-17T11:42:10.411Z,17.77
2023-04-17T11:44:37.675Z,18.20
2023-04-17T11:47:05.873Z,16.52
2023-04-17T11:49:34.185Z,16.23
2023-04-17T11:52:02.132Z,17.27
2023-04-17T11:54:30.226Z,18.63
2023-04-17T11:57:13.851Z,18.42
2023-04-17T11:59:46.068Z,16.27
2023-04-17T12:02:13.266Z,15.30
2023-04-17T12:04:41.000Z,17.55
2023-04-17T12:07:09.089Z,15.63
2023-04-17T12:09:36.991Z,14.70
2023-04-17T12:12:08.117Z,14.65
2023-04-17T12:14:36.885Z,13.73
2023-04-17T12:17:04.026Z,16.27
2023-04-17T12:19:32.046Z,15.55
2023-04-17T12:21:59.617Z,14.52
2023-04-17T12:24:26.863Z,16.42
2023-04-17T12:26:54.479Z,13.65
2023-04-17T12:29:32.258Z,17.13
2023-04-17T12:32:04.136Z,14.38
2023-04-17T12:34:31.391Z,14.15
2023-04-17T12:36:58.520Z,15.27
2023-04-17T12:39:25.678Z,12.85
2023-04-17T12:41:52.826Z,15.85
2023-04-17T12:44:20.789Z,17.77
2023-04-17T12:46:48.800Z,14.60
2023-04-17T12:49:15.937Z,13.88
2023-04-17T12:51:43.041Z,15.63
2023-04-17T12:54:10.489Z,17.58
2023-04-17T12:56:37.727Z,14.07
2023-04-17T12:59:04.915Z,14.27
2023-04-17T13:01:32.109Z,13.90
2023-04-17T13:03:59.751Z,13.07
2023-04-17T13:06:28.475Z,13.75
2023-04-17T13:08:58.977Z,11.38
2023-04-17T13:11:26.588Z,13.68
2023-04-17T13:13:54.399Z,11.10
2023-04-17T13:16:22.320Z,12.05
2023-04-17T13:18:50.007Z,10.93
2023-04-17T13:21:20.417Z,11.60
2023-04-17T13:23:50.951Z,10.75
2023-04-17T13:26:20.692Z,12.90
2023-04-17T13:28:48.094Z,11.32
2023-04-17T13:31:18.275Z,10.18
2023-04-17T13:33:46.643Z,10.20
2023-04-17T13:36:14.551Z,9.75
2023-04-17T13:38:42.540Z,8.23
2023-04-17T13:41:10.508Z,11.23
2023-04-17T13:43:38.352Z,9.75
2023-04-17T13:46:07.167Z,16.10
2023-04-17T13:48:35.223Z,9.68
2023-04-17T13:51:03.121Z,9.48
2023-04-17T13:53:31.110Z,9.65
2023-04-17T13:55:58.833Z,9.30
2023-04-17T13:58:29.209Z,8.68
2023-04-17T14:00:56.991Z,8.63
2023-04-17T14:03:24.810Z,7.95
2023-04-17T14:05:52.539Z,9.35
2023-04-17T14:08:19.977Z,10.32
2023-04-17T14:10:47.879Z,9.13
2023-04-17T14:13:16.205Z,10.43
2023-04-17T14:15:44.109Z,8.25
2023-04-17T14:18:12.394Z,7.93
2023-04-17T14:20:40.265Z,8.60
2023-04-17T14:23:08.320Z,8.10
2023-04-17T14:25:36.077Z,7.95
2023-04-17T14:28:03.898Z,9.15
2023-04-17T14:30:31.704Z,10.15
2023-04-17T14:32:59.591Z,9.35
2023-04-17T14:35:27.310Z,8.77
2023-04-17T14:37:54.819Z,7.57
2023-04-17T14:40:22.344Z,10.27
2023-04-17T14:42:54.592Z,8.80
2023-04-17T14:45:23.409Z,8.70
2023-04-17T14:47:51.017Z,8.15
2023-04-17T14:50:18.537Z,9.82
2023-04-17T14:52:55.113Z,10.02
2023-04-17T14:55:25.850Z,9.65
2023-04-17T14:57:53.738Z,8.20
2023-04-17T15:00:21.096Z,5.75
2023-04-17T15:02:48.821Z,4.35
2023-04-17T15:05:18.819Z,6.28
2023-04-17T15:07:46.393Z,5.63
2023-04-17T15:10:13.907Z,5.57
2023-04-17T15:12:41.092Z,3.83
2023-04-17T15:15:08.628Z,9.23
2023-04-17T15:17:37.466Z,5.75
2023-04-17T15:20:05.517Z,6.22
2023-04-17T15:22:32.915Z,7.75
2023-04-17T15:25:00.053Z,6.03
2023-04-17T15:27:27.195Z,8.63
2023-04-17T15:29:54.345Z,6.32
2023-04-17T15:32:22.023Z,6.32
2023-04-17T15:34:49.286Z,7.63
2023-04-17T15:37:16.483Z,5.97
2023-04-17T15:39:43.916Z,4.47
2023-04-17T15:42:11.886Z,7.30
2023-04-17T15:44:39.061Z,6.38
2023-04-17T15:47:06.764Z,4.97
2023-04-17T15:49:34.115Z,5.68
2023-04-17T15:52:01.318Z,6.03
2023-04-17T15:54:28.556Z,7.40
2023-04-17T15:56:56.797Z,11.50
2023-04-17T15:59:24.121Z,7.18
2023-04-17T16:01:53.079Z,7.68
2023-04-17T16:04:20.568Z,7.18
2023-04-17T16:06:48.092Z,6.65
2023-04-17T16:09:19.461Z,23.17
2023-04-17T16:11:49.946Z,9.82
2023-04-17T16:14:17.107Z,8.90
2023-04-17T16:16:44.319Z,5.07
2023-04-17T16:19:12.148Z,5.03
2023-04-17T16:21:39.491Z,5.80
2023-04-17T16:24:06.715Z,6.70
2023-04-17T16:26:33.939Z,4.90
2023-04-17T16:29:01.139Z,4.28
2023-04-17T16:31:28.362Z,5.32
2023-04-17T16:33:56.013Z,4.57
2023-04-17T16:36:23.254Z,6.82
2023-04-17T16:38:50.403Z,4.97
2023-04-17T16:41:18.602Z,5.95
2023-04-17T16:43:46.201Z,5.53
2023-04-17T16:46:23.944Z,5.70
2023-04-17T16:48:52.066Z,8.90
2023-04-17T16:51:20.599Z,6.72
2023-04-17T16:53:48.469Z,19.63
2023-04-17T16:56:15.624Z,7.93
2023-04-17T16:58:43.137Z,6.47
2023-04-17T17:01:10.337Z,6.65
2023-04-17T17:03:37.981Z,6.85
2023-04-17T17:06:07.005Z,6.60
2023-04-17T17:08:34.166Z,9.50
2023-04-17T17:11:03.426Z,7.78
2023-04-17T17:13:30.547Z,7.22
2023-04-17T17:15:58.313Z,8.65
2023-04-17T17:18:25.551Z,7.22
2023-04-17T17:20:55.905Z,12.93
2023-04-17T17:23:23.172Z,7.22
2023-04-17T17:25:50.453Z,7.70
2023-04-17T17:28:17.581Z,7.32
2023-04-17T17:30:44.771Z,7.80
2023-04-17T17:33:12.179Z,6.68
2023-04-17T17:35:39.383Z,8.07
2023-04-17T17:38:06.485Z,6.55
2023-04-17T17:40:33.686Z,8.95
2023-04-17T17:43:01.293Z,8.35
2023-04-17T17:45:28.432Z,7.43
2023-04-17T17:47:55.723Z,9.30
2023-04-17T17:50:23.057Z,6.20
2023-04-17T17:52:50.218Z,6.40
2023-04-17T17:55:17.707Z,5.45
2023-04-17T17:57:49.325Z,6.50
2023-04-17T18:00:17.259Z,8.13
2023-04-17T18:02:44.751Z,6.03
2023-04-17T18:05:12.014Z,8.25
2023-04-17T18:07:40.928Z,5.43
2023-04-17T18:10:08.365Z,5.03
2023-04-17T18:12:35.623Z,5.95
2023-04-17T18:15:02.914Z,4.75
2023-04-17T18:17:30.136Z,6.30
2023-04-17T18:19:57.233Z,7.13
2023-04-17T18:22:25.243Z,6.53
2023-04-17T18:24:55.842Z,5.43
2023-04-17T18:27:23.213Z,7.07
2023-04-17T18:29:50.457Z,6.18
2023-04-17T18:32:19.030Z,6.18
2023-04-17T18:34:49.149Z,7.75
2023-04-17T18:37:18.109Z,6.43
2023-04-17T18:39:45.680Z,6.60
2023-04-17T18:42:12.780Z,6.90
2023-04-17T18:44:39.957Z,6.97
2023-04-17T18:47:07.119Z,7.57
2023-04-17T18:49:34.290Z,6.90
2023-04-17T18:52:01.407Z,7.38
2023-04-17T18:54:28.516Z,5.63
2023-04-17T18:56:56.444Z,7.85
2023-04-17T18:59:25.990Z,7.38
2023-04-17T19:01:53.507Z,7.55
2023-04-17T19:04:21.776Z,7.95
2023-04-17T19:06:48.909Z,6.30
2023-04-17T19:09:16.061Z,7.30
2023-04-17T19:11:43.358Z,7.38
2023-04-17T19:14:10.645Z,7.72
2023-04-17T19:16:38.024Z,8.57
2023-04-17T19:19:05.836Z,8.40
2023-04-17T19:21:33.054Z,8.45
2023-04-17T19:24:00.185Z,10.50
2023-04-17T19:26:27.354Z,10.02
2023-04-17T19:28:55.072Z,8.88
2023-04-17T19:31:22.342Z,7.75
2023-04-17T19:33:49.517Z,6.90
2023-04-17T19:36:16.619Z,6.63
2023-04-17T19:38:43.940Z,6.35
2023-04-17T19:41:17.283Z,7.72
2023-04-17T19:43:49.718Z,6.30
2023-04-17T19:46:17.344Z,6.03
2023-04-17T19:48:44.957Z,5.97
2023-04-17T19:51:12.751Z,6.30
2023-04-17T19:53:40.667Z,7.68
2023-04-17T19:56:08.885Z,6.85
2023-04-17T19:58:36.065Z,6.80
2023-04-17T20:01:03.597Z,6.95
2023-04-17T20:03:32.245Z,7.22
2023-04-17T20:06:00.383Z,8.50
2023-04-17T20:08:27.669Z,7.05
2023-04-17T20:10:54.860Z,6.63
2023-04-17T20:13:22.013Z,7.40
2023-04-17T20:15:49.130Z,7.88
2023-04-17T20:18:16.253Z,7.18
2023-04-17T20:20:43.343Z,8.50
2023-04-17T20:23:10.594Z,7.63
2023-04-17T20:25:37.786Z,9.68
2023-04-17T20:28:04.974Z,8.43
2023-04-17T20:30:32.151Z,7.38
2023-04-17T20:33:00.322Z,10.00
2023-04-17T20:35:27.578Z,9.13
2023-04-17T20:37:54.689Z,9.07
2023-04-17T20:40:21.904Z,9.77
2023-04-17T20:42:49.704Z,10.85
2023-04-17T20:45:16.873Z,10.60
2023-04-17T20:47:55.749Z,10.77
2023-04-17T20:50:23.443Z,9.73
2023-04-17T20:52:50.596Z,10.35
2023-04-17T20:55:21.116Z,9.68
2023-04-17T20:57:48.408Z,11.23
2023-04-17T21:00:16.179Z,12.40
2023-04-17T21:02:43.914Z,13.25
2023-04-17T21:05:11.536Z,11.02
2023-04-17T21:07:38.655Z,12.68
2023-04-17T21:10:06.209Z,12.65
2023-04-17T21:12:35.109Z,13.13
2023-04-17T21:15:02.344Z,13.82
2023-04-17T21:17:29.522Z,15.88
2023-04-17T21:19:56.707Z,13.68
2023-04-17T21:22:23.832Z,11.85
2023-04-17T21:24:50.933Z,15.20
2023-04-17T21:27:18.100Z,14.18
2023-04-17T21:29:45.189Z,13.88
2023-04-17T21:32:12.408Z,15.45
2023-04-17T21:34:39.795Z,19.15
2023-04-17T21:37:07.138Z,13.75
2023-04-17T21:39:34.263Z,12.80
2023-04-17T21:42:02.053Z,13.93
2023-04-17T21:44:29.308Z,13.02
2023-04-17T21:46:56.455Z,16.13
2023-04-17T21:49:23.995Z,15.20
2023-04-17T21:51:51.221Z,14.32
2023-04-17T21:54:18.444Z,14.50
2023-04-17T21:56:45.851Z,13.43
2023-04-17T21:59:13.016Z,14.43
2023-04-17T22:01:40.264Z,14.93
2023-04-17T22:04:07.489Z,12.50
2023-04-17T22:06:37.812Z,13.73
2023-04-17T22:09:05.168Z,13.05
2023-04-17T22:11:32.338Z,10.52
2023-04-17T22:13:59.496Z,9.60
2023-04-17T22:16:26.653Z,8.80
2023-04-17T22:18:54.280Z,11.15
2023-04-17T22:21:21.420Z,9.02
2023-04-17T22:23:48.583Z,11.20
2023-04-17T22:26:16.204Z,8.50
2023-04-17T22:28:43.308Z,7.95
2023-04-17T22:31:10.919Z,8.43
2023-04-17T22:33:38.097Z,7.53
2023-04-17T22:36:05.232Z,8.40
2023-04-17T22:38:32.441Z,7.40
2023-04-17T22:40:59.636Z,8.70
2023-04-17T22:43:27.087Z,8.38
2023-04-17T22:45:54.281Z,7.68
2023-04-17T22:48:24.516Z,7.32
2023-04-17T22:50:51.915Z,7.40
2023-04-17T22:53:19.031Z,6.88
2023-04-17T22:55:46.141Z,7.35
2023-04-17T22:58:13.282Z,7.93
2023-04-17T23:00:40.438Z,7.15
2023-04-17T23:03:07.755Z,7.47
2023-04-17T23:05:35.104Z,6.82
2023-04-17T23:08:02.244Z,6.85
2023-04-17T23:10:29.337Z,8.27
2023-04-17T23:12:56.490Z,7.10
2023-04-17T23:15:23.812Z,8.77
2023-04-17T23:17:51.000Z,10.18
2023-04-17T23:20:18.240Z,11.15
2023-04-17T23:22:45.487Z,10.65
2023-04-17T23:25:12.697Z,9.88
2023-04-17T23:27:39.799Z,8.98
2023-04-17T23:30:07.440Z,10.07
2023-04-17T23:32:34.769Z,11.90
2023-04-17T23:35:01.966Z,8.55
2023-04-17T23:37:29.117Z,10.23
2023-04-17T23:39:56.219Z,10.73
2023-04-17T23:42:23.380Z,10.60
2023-04-17T23:44:50.905Z,11.90
2023-04-17T23:47:18.021Z,11.73
2023-04-17T23:49:45.238Z,11.15
2023-04-17T23:52:12.319Z,12.05
2023-04-17T23:54:39.500Z,11.45
2023-04-17T23:57:06.582Z,11.63
2023-04-17T23:59:33.765Z,10.80
